createdAt,value
2023-04-25T00:00:54.220Z,474.00
2023-04-25T00:01:54.159Z,472.00
2023-04-25T00:02:54.309Z,471.00
2023-04-25T00:03:54.657Z,471.00
2023-04-25T00:04:54.306Z,469.00
2023-04-25T00:05:54.160Z,470.00
2023-04-25T00:06:54.106Z,470.00
2023-04-25T00:07:54.115Z,470.00
2023-04-25T00:08:54.077Z,469.00
2023-04-25T00:09:54.089Z,470.00
2023-04-25T00:10:54.086Z,472.00
2023-04-25T00:11:54.119Z,473.00
2023-04-25T00:12:54.066Z,472.00
2023-04-25T00:13:54.224Z,471.00
2023-04-25T00:14:54.058Z,472.00
2023-04-25T00:15:54.042Z,473.00
2023-04-25T00:16:54.065Z,472.00
2023-04-25T00:17:54.151Z,470.00
2023-04-25T00:18:54.083Z,470.00
2023-04-25T00:19:54.027Z,470.00
2023-04-25T00:20:54.027Z,468.00
2023-04-25T00:21:54.057Z,468.00
2023-04-25T00:22:54.107Z,467.00
2023-04-25T00:23:54.051Z,467.00
2023-04-25T00:24:54.110Z,466.00
2023-04-25T00:25:54.080Z,466.00
2023-04-25T00:26:54.086Z,464.00
2023-04-25T00:27:54.094Z,466.00
2023-04-25T00:28:54.113Z,466.00
2023-04-25T00:29:54.111Z,467.00
2023-04-25T00:30:54.128Z,465.00
2023-04-25T00:31:54.208Z,464.00
2023-04-25T00:32:54.217Z,465.00
2023-04-25T00:33:54.222Z,466.00
2023-04-25T00:34:54.228Z,467.00
2023-04-25T00:35:54.178Z,468.00
2023-04-25T00:36:54.204Z,470.00
2023-04-25T00:37:54.189Z,470.00
2023-04-25T00:38:54.307Z,468.00
2023-04-25T00:39:54.224Z,470.00
2023-04-25T00:40:54.273Z,469.00
2023-04-25T00:41:54.356Z,469.00
2023-04-25T00:42:54.279Z,470.00
2023-04-25T00:43:54.286Z,471.00
2023-04-25T00:44:54.299Z,469.00
2023-04-25T00:45:54.318Z,468.00
2023-04-25T00:46:54.372Z,466.00
2023-04-25T00:47:54.378Z,466.00
2023-04-25T00:48:54.425Z,467.00
2023-04-25T00:49:54.380Z,467.00
2023-04-25T00:50:54.367Z,468.00
2023-04-25T00:51:54.370Z,469.00
2023-04-25T00:52:54.391Z,469.00
2023-04-25T00:53:54.440Z,468.00
2023-04-25T00:54:54.418Z,466.00
2023-04-25T00:55:54.398Z,466.00
2023-04-25T00:56:54.400Z,465.00
2023-04-25T00:57:54.433Z,466.00
2023-04-25T00:58:54.455Z,464.00
2023-04-25T00:59:54.495Z,463.00
2023-04-25T01:00:54.552Z,465.00
2023-04-25T01:01:54.573Z,465.00
2023-04-25T01:02:54.637Z,466.00
2023-04-25T01:03:55.158Z,467.00
2023-04-25T01:04:54.559Z,469.00
2023-04-25T01:05:54.692Z,472.00
2023-04-25T01:06:54.610Z,470.00
2023-04-25T01:07:54.659Z,469.00
2023-04-25T01:08:54.666Z,469.00
2023-04-25T01:09:54.664Z,470.00
2023-04-25T01:10:54.685Z,471.00
2023-04-25T01:11:54.762Z,473.00
2023-04-25T01:12:54.746Z,472.00
2023-04-25T01:13:54.759Z,472.00
2023-04-25T01:14:54.730Z,473.00
2023-04-25T01:15:54.815Z,476.00
2023-04-25T01:16:54.809Z,474.00
2023-04-25T01:17:54.872Z,473.00
2023-04-25T01:18:54.892Z,471.00
2023-04-25T01:19:54.892Z,472.00
2023-04-25T01:20:54.874Z,471.00
2023-04-25T01:21:54.954Z,474.00
2023-04-25T01:22:54.906Z,475.00
2023-04-25T01:23:54.981Z,471.00
2023-04-25T01:24:54.976Z,474.00
2023-04-25T01:25:55.012Z,471.00
2023-04-25T01:26:55.044Z,474.00
2023-04-25T01:27:55.095Z,476.00
2023-04-25T01:28:55.116Z,477.00
2023-04-25T01:29:55.131Z,476.00
2023-04-25T01:30:55.150Z,476.00
2023-04-25T01:31:55.194Z,475.00
2023-04-25T01:32:55.234Z,477.00
2023-04-25T01:33:55.207Z,477.00
2023-04-25T01:34:55.249Z,476.00
2023-04-25T01:35:55.252Z,478.00
2023-04-25T01:36:55.295Z,476.00
2023-04-25T01:37:55.318Z,474.00
2023-04-25T01:38:55.391Z,473.00
2023-04-25T01:39:55.332Z,476.00
2023-04-25T01:40:55.389Z,477.00
2023-04-25T01:41:56.670Z,476.00
2023-04-25T01:42:55.482Z,474.00
2023-04-25T01:43:55.463Z,473.00
2023-04-25T01:44:55.478Z,472.00
2023-04-25T01:45:55.582Z,472.00
2023-04-25T01:46:55.543Z,473.00
2023-04-25T01:47:55.611Z,473.00
2023-04-25T01:48:55.628Z,474.00
2023-04-25T01:49:55.723Z,472.00
2023-04-25T01:50:55.716Z,471.00
2023-04-25T01:51:55.794Z,469.00
2023-04-25T01:52:55.739Z,469.00
2023-04-25T01:53:55.789Z,473.00
2023-04-25T01:54:55.796Z,474.00
2023-04-25T01:55:55.855Z,475.00
2023-04-25T01:56:55.862Z,474.00
2023-04-25T01:57:55.869Z,476.00
2023-04-25T01:58:55.877Z,476.00
2023-04-25T01:59:55.930Z,478.00
2023-04-25T02:00:55.994Z,476.00
2023-04-25T02:01:56.088Z,476.00
2023-04-25T02:02:56.128Z,474.00
2023-04-25T02:03:56.287Z,474.00
2023-04-25T02:04:56.060Z,474.00
2023-04-25T02:05:56.127Z,475.00
2023-04-25T02:06:56.184Z,474.00
2023-04-25T02:07:56.183Z,472.00
2023-04-25T02:08:56.249Z,474.00
2023-04-25T02:09:56.261Z,473.00
2023-04-25T02:10:56.261Z,474.00
2023-04-25T02:11:56.312Z,473.00
2023-04-25T02:12:56.319Z,472.00
2023-04-25T02:13:56.359Z,471.00
2023-04-25T02:14:56.407Z,470.00
2023-04-25T02:15:56.482Z,467.00
2023-04-25T02:16:56.509Z,465.00
2023-04-25T02:17:56.546Z,465.00
2023-04-25T02:18:56.530Z,468.00
2023-04-25T02:19:56.577Z,468.00
2023-04-25T02:20:56.592Z,469.00
2023-04-25T02:21:56.606Z,469.00
2023-04-25T02:22:56.599Z,467.00
2023-04-25T02:23:56.705Z,465.00
2023-04-25T02:24:56.716Z,465.00
2023-04-25T02:25:56.723Z,464.00
2023-04-25T02:26:56.781Z,465.00
2023-04-25T02:27:56.804Z,464.00
2023-04-25T02:28:56.858Z,463.00
2023-04-25T02:29:56.881Z,463.00
2023-04-25T02:30:56.930Z,464.00
2023-04-25T02:31:57.035Z,466.00
2023-04-25T02:32:56.965Z,467.00
2023-04-25T02:33:56.998Z,465.00
2023-04-25T02:34:57.109Z,463.00
2023-04-25T02:35:57.097Z,464.00
2023-04-25T02:36:57.142Z,464.00
2023-04-25T02:37:57.105Z,465.00
2023-04-25T02:38:57.172Z,463.00
2023-04-25T02:39:57.197Z,462.00
2023-04-25T02:40:57.196Z,462.00
2023-04-25T02:41:57.305Z,462.00
2023-04-25T02:42:57.302Z,464.00
2023-04-25T02:43:57.316Z,464.00
2023-04-25T02:44:57.374Z,464.00
2023-04-25T02:45:57.380Z,462.00
2023-04-25T02:46:57.472Z,461.00
2023-04-25T02:47:57.470Z,461.00
2023-04-25T02:48:57.510Z,461.00
2023-04-25T02:49:57.502Z,459.00
2023-04-25T02:50:57.563Z,458.00
2023-04-25T02:51:57.565Z,459.00
2023-04-25T02:52:57.646Z,459.00
2023-04-25T02:53:57.651Z,459.00
2023-04-25T02:54:57.684Z,459.00
2023-04-25T02:55:57.745Z,459.00
2023-04-25T02:56:57.750Z,460.00
2023-04-25T02:57:57.938Z,460.00
2023-04-25T02:58:57.822Z,460.00
2023-04-25T02:59:57.828Z,460.00
2023-04-25T03:00:57.881Z,460.00
2023-04-25T03:01:57.913Z,459.00
2023-04-25T03:02:58.024Z,459.00
2023-04-25T03:03:58.042Z,458.00
2023-04-25T03:04:58.087Z,457.00
2023-04-25T03:05:58.076Z,458.00
2023-04-25T03:06:58.127Z,457.00
2023-04-25T03:07:58.133Z,459.00
2023-04-25T03:08:58.194Z,459.00
2023-04-25T03:09:58.223Z,461.00
2023-04-25T03:10:58.245Z,463.00
2023-04-25T03:11:58.329Z,463.00
2023-04-25T03:12:58.336Z,464.00
2023-04-25T03:13:58.433Z,467.00
2023-04-25T03:14:58.392Z,468.00
2023-04-25T03:15:58.500Z,467.00
2023-04-25T03:16:58.509Z,465.00
2023-04-25T03:17:58.606Z,465.00
2023-04-25T03:18:58.640Z,463.00
2023-04-25T03:19:58.639Z,465.00
2023-04-25T03:20:58.627Z,464.00
2023-04-25T03:21:58.690Z,462.00
2023-04-25T03:22:58.782Z,461.00
2023-04-25T03:23:58.819Z,463.00
2023-04-25T03:24:58.870Z,464.00
2023-04-25T03:25:58.820Z,464.00
2023-04-25T03:26:58.877Z,464.00
2023-04-25T03:27:58.948Z,464.00
2023-04-25T03:28:59.095Z,463.00
2023-04-25T03:29:59.061Z,462.00
2023-04-25T03:30:59.168Z,462.00
2023-04-25T03:31:59.171Z,461.00
2023-04-25T03:32:59.377Z,460.00
2023-04-25T03:33:59.232Z,459.00
2023-04-25T03:34:59.303Z,458.00
2023-04-25T03:35:59.302Z,458.00
2023-04-25T03:36:59.396Z,458.00
2023-04-25T03:37:59.416Z,458.00
2023-04-25T03:38:59.453Z,460.00
2023-04-25T03:39:59.556Z,461.00
2023-04-25T03:40:59.528Z,463.00
2023-04-25T03:41:59.604Z,462.00
2023-04-25T03:42:59.642Z,463.00
2023-04-25T03:43:59.716Z,463.00
2023-04-25T03:44:59.714Z,463.00
2023-04-25T03:45:59.803Z,462.00
2023-04-25T03:46:59.821Z,463.00
2023-04-25T03:47:59.983Z,463.00
2023-04-25T03:48:59.960Z,461.00
2023-04-25T03:49:59.959Z,460.00
2023-04-25T03:51:00.020Z,460.00
2023-04-25T03:52:00.073Z,458.00
2023-04-25T03:53:00.128Z,460.00
2023-04-25T03:54:00.218Z,460.00
2023-04-25T03:55:00.272Z,463.00
2023-04-25T03:56:00.290Z,463.00
2023-04-25T03:57:00.389Z,462.00
2023-04-25T03:58:00.437Z,462.00
2023-04-25T03:59:00.480Z,462.00
2023-04-25T04:00:00.573Z,463.00
2023-04-25T04:01:00.591Z,463.00
2023-04-25T04:02:01.031Z,463.00
2023-04-25T04:03:00.783Z,460.00
2023-04-25T04:04:01.019Z,458.00
2023-04-25T04:05:01.076Z,456.00
2023-04-25T04:06:00.838Z,456.00
2023-04-25T04:07:00.887Z,454.00
2023-04-25T04:08:00.967Z,455.00
2023-04-25T04:09:00.968Z,455.00
2023-04-25T04:10:01.067Z,455.00
2023-04-25T04:11:01.143Z,458.00
2023-04-25T04:12:01.180Z,461.00
2023-04-25T04:13:01.200Z,461.00
2023-04-25T04:14:01.247Z,461.00
2023-04-25T04:15:01.316Z,462.00
2023-04-25T04:16:01.444Z,463.00
2023-04-25T04:17:01.429Z,459.00
2023-04-25T04:18:01.521Z,460.00
2023-04-25T04:19:01.578Z,460.00
2023-04-25T04:20:01.593Z,458.00
2023-04-25T04:21:01.650Z,459.00
2023-04-25T04:22:01.713Z,460.00
2023-04-25T04:23:01.742Z,462.00
2023-04-25T04:24:01.788Z,460.00
2023-04-25T04:25:01.921Z,459.00
2023-04-25T04:26:01.901Z,458.00
2023-04-25T04:27:02.010Z,457.00
2023-04-25T04:28:02.016Z,457.00
2023-04-25T04:29:02.068Z,458.00
2023-04-25T04:30:02.176Z,460.00
2023-04-25T04:31:02.291Z,460.00
2023-04-25T04:32:02.415Z,459.00
2023-04-25T04:33:02.591Z,460.00
2023-04-25T04:34:02.366Z,460.00
2023-04-25T04:35:02.370Z,459.00
2023-04-25T04:36:02.424Z,457.00
2023-04-25T04:37:02.609Z,456.00
2023-04-25T04:38:02.555Z,457.00
2023-04-25T04:39:02.587Z,454.00
2023-04-25T04:40:02.679Z,455.00
2023-04-25T04:41:02.725Z,456.00
2023-04-25T04:42:02.745Z,457.00
2023-04-25T04:43:02.834Z,459.00
2023-04-25T04:44:02.931Z,460.00
2023-04-25T04:45:02.959Z,458.00
2023-04-25T04:46:02.967Z,457.00
2023-04-25T04:47:03.218Z,458.00
2023-04-25T04:48:03.212Z,459.00
2023-04-25T04:49:03.281Z,460.00
2023-04-25T04:50:03.225Z,457.00
2023-04-25T04:51:03.248Z,458.00
2023-04-25T04:52:03.359Z,458.00
2023-04-25T04:53:03.427Z,459.00
2023-04-25T04:54:03.487Z,457.00
2023-04-25T04:55:03.508Z,457.00
2023-04-25T04:56:03.566Z,459.00
2023-04-25T04:57:03.656Z,459.00
2023-04-25T04:58:03.724Z,458.00
2023-04-25T04:59:03.786Z,462.00
2023-04-25T05:00:03.825Z,466.00
2023-04-25T05:01:03.947Z,467.00
2023-04-25T05:02:03.950Z,466.00
2023-04-25T05:03:04.188Z,465.00
2023-04-25T05:04:04.369Z,465.00
2023-04-25T05:05:04.109Z,467.00
2023-04-25T05:06:04.240Z,465.00
2023-04-25T05:07:04.294Z,464.00
2023-04-25T05:08:04.328Z,463.00
2023-04-25T05:09:04.438Z,463.00
2023-04-25T05:10:04.465Z,462.00
2023-04-25T05:11:04.509Z,460.00
2023-04-25T05:12:04.573Z,456.00
2023-04-25T05:13:04.589Z,455.00
2023-04-25T05:14:05.460Z,454.00
2023-04-25T05:15:04.753Z,452.00
2023-04-25T05:16:04.812Z,451.00
2023-04-25T05:17:04.920Z,453.00
2023-04-25T05:18:05.145Z,456.00
2023-04-25T05:19:05.027Z,458.00
2023-04-25T05:20:05.058Z,457.00
2023-04-25T05:21:05.135Z,458.00
2023-04-25T05:22:05.286Z,458.00
2023-04-25T05:23:05.256Z,456.00
2023-04-25T05:24:05.321Z,459.00
2023-04-25T05:25:05.377Z,458.00
2023-04-25T05:26:05.475Z,463.00
2023-04-25T05:27:05.546Z,460.00
2023-04-25T05:28:05.684Z,458.00
2023-04-25T05:29:05.641Z,461.00
2023-04-25T05:30:05.708Z,461.00
2023-04-25T05:31:05.778Z,463.00
2023-04-25T05:32:05.910Z,469.00
2023-04-25T05:33:05.972Z,476.00
2023-04-25T05:34:05.943Z,479.00
2023-04-25T05:35:06.042Z,477.00
2023-04-25T05:36:06.055Z,479.00
2023-04-25T05:37:06.074Z,501.00
2023-04-25T05:38:06.136Z,539.00
2023-04-25T05:39:06.132Z,539.00
2023-04-25T05:40:06.297Z,556.00
2023-04-25T05:41:06.359Z,583.00
2023-04-25T05:42:06.320Z,612.00
2023-04-25T05:43:06.395Z,645.00
2023-04-25T05:44:06.412Z,702.00
2023-04-25T05:45:06.444Z,704.00
2023-04-25T05:46:06.561Z,703.00
2023-04-25T05:47:06.552Z,708.00
2023-04-25T05:48:06.675Z,802.00
2023-04-25T05:49:06.612Z,811.00
2023-04-25T05:50:06.652Z,819.00
2023-04-25T05:51:06.726Z,828.00
2023-04-25T05:52:06.985Z,865.00
2023-04-25T05:53:06.816Z,889.00
2023-04-25T05:54:06.821Z,910.00
2023-04-25T05:55:06.831Z,918.00
2023-04-25T05:56:06.858Z,927.00
2023-04-25T05:57:06.839Z,977.00
2023-04-25T05:58:06.874Z,982.00
2023-04-25T05:59:06.887Z,983.00
2023-04-25T06:00:06.903Z,979.00
2023-04-25T06:01:06.872Z,989.00
2023-04-25T06:02:06.907Z,1036.00
2023-04-25T06:03:07.003Z,1049.00
2023-04-25T06:04:07.154Z,1079.00
2023-04-25T06:05:06.981Z,1110.00
2023-04-25T06:06:07.061Z,1114.00
2023-04-25T06:07:06.881Z,1110.00
2023-04-25T06:08:06.846Z,1119.00
2023-04-25T06:09:06.885Z,1124.00
2023-04-25T06:10:06.928Z,1131.00
2023-04-25T06:11:07.030Z,1154.00
2023-04-25T06:12:07.013Z,1162.00
2023-04-25T06:13:07.032Z,1177.00
2023-04-25T06:14:07.082Z,1187.00
2023-04-25T06:15:20.036Z,1216.00
2023-04-25T06:16:08.205Z,1263.00
2023-04-25T06:17:07.077Z,1258.00
2023-04-25T06:18:07.122Z,1280.00
2023-04-25T06:19:07.123Z,1309.00
2023-04-25T06:20:07.124Z,1360.00
2023-04-25T06:21:07.184Z,1369.00
2023-04-25T06:22:07.101Z,1154.00
2023-04-25T06:23:07.091Z,1029.00
2023-04-25T06:24:07.536Z,1033.00
2023-04-25T06:25:07.057Z,984.00
2023-04-25T06:26:07.077Z,962.00
2023-04-25T06:27:07.119Z,939.00
2023-04-25T06:28:07.114Z,934.00
2023-04-25T06:29:07.183Z,929.00
2023-04-25T06:30:07.299Z,918.00
2023-04-25T06:31:07.335Z,837.00
2023-04-25T06:32:07.352Z,839.00
2023-04-25T06:33:07.519Z,838.00
2023-04-25T06:34:07.497Z,837.00
2023-04-25T06:35:07.505Z,928.00
2023-04-25T06:36:07.679Z,963.00
2023-04-25T06:37:07.703Z,976.00
2023-04-25T06:38:07.691Z,1066.00
2023-04-25T06:39:08.496Z,1062.00
2023-04-25T06:40:07.795Z,998.00
2023-04-25T06:41:07.829Z,888.00
2023-04-25T06:42:07.860Z,971.00
2023-04-25T06:43:08.257Z,1016.00
2023-04-25T06:44:08.012Z,1071.00
2023-04-25T06:45:08.539Z,1064.00
2023-04-25T06:46:08.990Z,1074.00
2023-04-25T06:47:08.236Z,1083.00
2023-04-25T06:48:08.180Z,1091.00
2023-04-25T06:49:08.151Z,1095.00
2023-04-25T06:50:08.661Z,1089.00
2023-04-25T06:51:09.228Z,1099.00
2023-04-25T06:52:08.201Z,1112.00
2023-04-25T06:53:08.254Z,1125.00
2023-04-25T06:54:08.212Z,1136.00
2023-04-25T06:55:08.301Z,1141.00
2023-04-25T06:56:08.251Z,1139.00
2023-04-25T06:57:08.253Z,1155.00
2023-04-25T06:58:08.291Z,1187.00
2023-04-25T06:59:08.326Z,1188.00
2023-04-25T07:00:08.593Z,1206.00
2023-04-25T07:01:08.495Z,1226.00
2023-04-25T07:02:08.655Z,1239.00
2023-04-25T07:03:08.722Z,1249.00
2023-04-25T07:04:08.785Z,1254.00
2023-04-25T07:05:08.703Z,1274.00
2023-04-25T07:06:08.704Z,1285.00
2023-04-25T07:07:08.807Z,1307.00
2023-04-25T07:08:08.823Z,1316.00
2023-04-25T07:09:08.904Z,1364.00
2023-04-25T07:10:08.951Z,1370.00
2023-04-25T07:11:09.015Z,1379.00
2023-04-25T07:12:08.989Z,1386.00
2023-04-25T07:13:08.996Z,1400.00
2023-04-25T07:14:09.047Z,1412.00
2023-04-25T07:15:09.089Z,1430.00
2023-04-25T07:16:09.152Z,1442.00
2023-04-25T07:17:09.179Z,1471.00
2023-04-25T07:18:09.177Z,1478.00
2023-04-25T07:19:09.172Z,1482.00
2023-04-25T07:20:09.202Z,1488.00
2023-04-25T07:21:09.156Z,1498.00
2023-04-25T07:22:09.196Z,1507.00
2023-04-25T07:23:09.173Z,1523.00
2023-04-25T07:24:09.261Z,1533.00
2023-04-25T07:25:09.214Z,1541.00
2023-04-25T07:26:09.234Z,1556.00
2023-04-25T07:27:09.234Z,1568.00
2023-04-25T07:28:09.204Z,1575.00
2023-04-25T07:29:09.249Z,1410.00
2023-04-25T07:30:11.313Z,1471.00
2023-04-25T07:31:09.326Z,1165.00
2023-04-25T07:32:09.341Z,1212.00
2023-04-25T07:33:09.365Z,1107.00
2023-04-25T07:34:09.543Z,1075.00
2023-04-25T07:35:09.500Z,1021.00
2023-04-25T07:36:09.511Z,906.00
2023-04-25T07:37:09.550Z,1034.00
2023-04-25T07:38:09.641Z,1036.00
2023-04-25T07:39:09.665Z,1076.00
2023-04-25T07:40:09.737Z,1103.00
2023-04-25T07:41:09.765Z,1114.00
2023-04-25T07:42:10.028Z,1121.00
2023-04-25T07:43:09.872Z,1148.00
2023-04-25T07:44:09.966Z,1168.00
2023-04-25T07:45:10.001Z,1175.00
2023-04-25T07:46:10.028Z,1169.00
2023-04-25T07:47:10.088Z,1176.00
2023-04-25T07:48:10.030Z,1193.00
2023-04-25T07:49:10.048Z,1231.00
2023-04-25T07:50:10.059Z,1259.00
2023-04-25T07:51:10.181Z,1291.00
2023-04-25T07:52:10.120Z,1311.00
2023-04-25T07:53:10.132Z,1340.00
2023-04-25T07:54:10.099Z,1350.00
2023-04-25T07:55:10.563Z,1360.00
2023-04-25T07:56:10.218Z,1383.00
2023-04-25T07:57:10.288Z,1401.00
2023-04-25T07:58:10.159Z,1418.00
2023-04-25T07:59:10.171Z,1459.00
2023-04-25T08:00:10.202Z,1469.00
2023-04-25T08:01:10.121Z,1484.00
2023-04-25T08:02:10.224Z,1538.00
2023-04-25T08:03:10.415Z,1553.00
2023-04-25T08:04:10.424Z,1557.00
2023-04-25T08:05:10.396Z,1562.00
2023-04-25T08:06:10.564Z,1573.00
2023-04-25T08:07:10.356Z,1588.00
2023-04-25T08:08:10.446Z,1600.00
2023-04-25T08:09:10.551Z,1619.00
2023-04-25T08:10:10.557Z,1633.00
2023-04-25T08:11:10.609Z,1673.00
2023-04-25T08:12:10.678Z,1694.00
2023-04-25T08:13:10.745Z,1565.00
2023-04-25T08:14:10.792Z,1378.00
2023-04-25T08:15:10.723Z,1253.00
2023-04-25T08:16:10.923Z,1209.00
2023-04-25T08:17:10.803Z,1216.00
2023-04-25T08:18:10.835Z,1276.00
2023-04-25T08:19:11.024Z,1293.00
2023-04-25T08:20:10.792Z,1231.00
2023-04-25T08:21:10.822Z,1253.00
2023-04-25T08:22:10.833Z,1323.00
2023-04-25T08:23:10.902Z,1361.00
2023-04-25T08:24:11.083Z,1332.00
2023-04-25T08:25:10.935Z,1338.00
2023-04-25T08:26:10.923Z,1384.00
2023-04-25T08:27:10.911Z,1428.00
2023-04-25T08:28:10.909Z,1321.00
2023-04-25T08:29:11.040Z,1285.00
2023-04-25T08:30:11.259Z,1152.00
2023-04-25T08:31:10.965Z,994.00
2023-04-25T08:32:10.947Z,931.00
2023-04-25T08:33:11.046Z,911.00
2023-04-25T08:34:11.099Z,865.00
2023-04-25T08:35:11.064Z,870.00
2023-04-25T08:36:11.381Z,862.00
2023-04-25T08:37:11.103Z,783.00
2023-04-25T08:38:11.169Z,768.00
2023-04-25T08:39:11.270Z,737.00
2023-04-25T08:40:11.161Z,708.00
2023-04-25T08:41:11.288Z,700.00
2023-04-25T08:42:11.326Z,690.00
2023-04-25T08:43:14.067Z,697.00
2023-04-25T08:44:11.332Z,733.00
2023-04-25T08:45:11.472Z,745.00
2023-04-25T08:46:11.386Z,813.00
2023-04-25T08:47:11.397Z,831.00
2023-04-25T08:48:13.164Z,927.00
2023-04-25T08:49:11.328Z,925.00
2023-04-25T08:50:11.608Z,929.00
2023-04-25T08:51:11.575Z,1020.00
2023-04-25T08:52:11.284Z,1006.00
2023-04-25T08:53:11.337Z,1002.00
2023-04-25T08:54:23.328Z,1005.00
2023-04-25T08:55:12.555Z,1025.00
2023-04-25T08:56:11.410Z,1036.00
2023-04-25T08:57:11.276Z,1057.00
2023-04-25T08:58:11.358Z,1084.00
2023-04-25T08:59:11.452Z,1140.00
2023-04-25T09:00:11.656Z,1163.00
2023-04-25T09:01:11.397Z,1167.00
2023-04-25T09:02:11.281Z,1183.00
2023-04-25T09:03:11.398Z,1207.00
2023-04-25T09:04:11.321Z,1240.00
2023-04-25T09:05:11.270Z,1244.00
2023-04-25T09:06:11.212Z,1260.00
2023-04-25T09:07:12.054Z,1306.00
2023-04-25T09:08:11.199Z,1320.00
2023-04-25T09:09:11.251Z,1323.00
2023-04-25T09:10:11.298Z,1328.00
2023-04-25T09:11:11.168Z,1345.00
2023-04-25T09:12:11.250Z,1365.00
2023-04-25T09:13:11.175Z,1381.00
2023-04-25T09:14:11.202Z,1399.00
2023-04-25T09:15:11.188Z,1460.00
2023-04-25T09:16:11.245Z,1473.00
2023-04-25T09:17:11.884Z,1494.00
2023-04-25T09:18:11.328Z,1447.00
2023-04-25T09:19:11.318Z,1506.00
2023-04-25T09:20:11.338Z,1329.00
2023-04-25T09:21:14.266Z,1425.00
2023-04-25T09:22:11.409Z,1412.00
2023-04-25T09:23:11.313Z,1413.00
2023-04-25T09:24:11.293Z,1410.00
2023-04-25T09:25:11.366Z,1402.00
2023-04-25T09:26:11.318Z,1354.00
2023-04-25T09:27:11.280Z,1340.00
2023-04-25T09:28:11.292Z,1265.00
2023-04-25T09:29:11.304Z,1222.00
2023-04-25T09:30:11.299Z,1148.00
2023-04-25T09:31:11.285Z,1271.00
2023-04-25T09:32:11.656Z,1242.00
2023-04-25T09:33:11.293Z,1088.00
2023-04-25T09:34:11.577Z,969.00
2023-04-25T09:35:11.574Z,919.00
2023-04-25T09:36:11.265Z,876.00
2023-04-25T09:37:11.226Z,863.00
2023-04-25T09:38:11.249Z,854.00
2023-04-25T09:39:11.259Z,840.00
2023-04-25T09:40:11.657Z,820.00
2023-04-25T09:41:11.239Z,812.00
2023-04-25T09:42:11.214Z,809.00
2023-04-25T09:43:11.174Z,821.00
2023-04-25T09:44:11.176Z,821.00
2023-04-25T09:45:11.130Z,824.00
2023-04-25T09:46:11.609Z,828.00
2023-04-25T09:47:11.147Z,836.00
2023-04-25T09:48:11.283Z,884.00
2023-04-25T09:49:11.557Z,855.00
2023-04-25T09:50:11.163Z,856.00
2023-04-25T09:51:11.140Z,859.00
2023-04-25T09:52:11.132Z,861.00
2023-04-25T09:53:11.203Z,869.00
2023-04-25T09:54:11.122Z,873.00
2023-04-25T09:55:12.130Z,874.00
2023-04-25T09:56:11.111Z,875.00
2023-04-25T09:57:11.618Z,877.00
2023-04-25T09:58:11.171Z,871.00
2023-04-25T09:59:11.270Z,868.00
2023-04-25T10:00:11.065Z,866.00
2023-04-25T10:01:11.064Z,866.00
2023-04-25T10:02:11.075Z,864.00
2023-04-25T10:03:11.136Z,862.00
2023-04-25T10:04:11.099Z,859.00
2023-04-25T10:05:11.275Z,856.00
2023-04-25T10:06:11.017Z,850.00
2023-04-25T10:07:11.052Z,848.00
2023-04-25T10:08:11.081Z,850.00
2023-04-25T10:09:11.006Z,852.00
2023-04-25T10:10:11.033Z,850.00
2023-04-25T10:11:10.973Z,847.00
2023-04-25T10:12:11.096Z,845.00
2023-04-25T10:13:11.124Z,841.00
2023-04-25T10:14:10.988Z,839.00
2023-04-25T10:15:11.012Z,835.00
2023-04-25T10:16:11.014Z,832.00
2023-04-25T10:17:10.994Z,832.00
2023-04-25T10:18:11.149Z,834.00
2023-04-25T10:19:10.999Z,834.00
2023-04-25T10:20:11.030Z,834.00
2023-04-25T10:21:11.074Z,834.00
2023-04-25T10:22:11.144Z,830.00
2023-04-25T10:23:11.106Z,830.00
2023-04-25T10:24:11.041Z,826.00
2023-04-25T10:25:11.047Z,825.00
2023-04-25T10:26:11.099Z,826.00
2023-04-25T10:27:11.109Z,824.00
2023-04-25T10:28:11.080Z,826.00
2023-04-25T10:29:11.094Z,825.00
2023-04-25T10:30:11.642Z,821.00
2023-04-25T10:31:11.146Z,821.00
2023-04-25T10:32:11.358Z,819.00
2023-04-25T10:33:11.148Z,818.00
2023-04-25T10:34:11.193Z,818.00
2023-04-25T10:35:11.272Z,818.00
2023-04-25T10:36:11.171Z,817.00
2023-04-25T10:37:11.220Z,813.00
2023-04-25T10:38:11.232Z,811.00
2023-04-25T10:39:11.265Z,808.00
2023-04-25T10:40:11.622Z,809.00
2023-04-25T10:41:11.261Z,806.00
2023-04-25T10:42:11.306Z,807.00
2023-04-25T10:43:12.377Z,804.00
2023-04-25T10:44:11.604Z,805.00
2023-04-25T10:45:11.339Z,802.00
2023-04-25T10:46:11.379Z,800.00
2023-04-25T10:47:11.468Z,800.00
2023-04-25T10:48:11.394Z,797.00
2023-04-25T10:49:13.050Z,795.00
2023-04-25T10:50:11.379Z,795.00
2023-04-25T10:51:11.358Z,794.00
2023-04-25T10:52:11.312Z,792.00
2023-04-25T10:53:11.337Z,793.00
2023-04-25T10:54:11.429Z,794.00
2023-04-25T10:55:11.303Z,793.00
2023-04-25T10:56:12.502Z,792.00
2023-04-25T10:57:11.587Z,791.00
2023-04-25T10:58:11.342Z,788.00
2023-04-25T10:59:11.457Z,786.00
2023-04-25T11:00:11.426Z,786.00
2023-04-25T11:01:11.309Z,785.00
2023-04-25T11:02:11.351Z,783.00
2023-04-25T11:03:11.313Z,784.00
2023-04-25T11:04:11.480Z,783.00
2023-04-25T11:05:11.260Z,780.00
2023-04-25T11:06:11.300Z,779.00
2023-04-25T11:07:11.257Z,779.00
2023-04-25T11:08:11.208Z,777.00
2023-04-25T11:09:11.252Z,773.00
2023-04-25T11:10:11.196Z,774.00
2023-04-25T11:11:11.209Z,774.00
2023-04-25T11:12:11.642Z,775.00
2023-04-25T11:13:11.220Z,776.00
2023-04-25T11:14:11.272Z,775.00
2023-04-25T11:15:11.158Z,775.00
2023-04-25T11:16:12.836Z,776.00
2023-04-25T11:17:11.670Z,775.00
2023-04-25T11:18:11.214Z,772.00
2023-04-25T11:19:11.157Z,771.00
2023-04-25T11:20:11.144Z,771.00
2023-04-25T11:21:11.155Z,770.00
2023-04-25T11:22:11.103Z,770.00
2023-04-25T11:23:11.113Z,770.00
2023-04-25T11:24:11.100Z,768.00
2023-04-25T11:25:11.199Z,766.00
2023-04-25T11:26:11.135Z,764.00
2023-04-25T11:27:11.144Z,762.00
2023-04-25T11:28:11.242Z,758.00
2023-04-25T11:29:11.143Z,756.00
2023-04-25T11:30:11.204Z,754.00
2023-04-25T11:31:11.234Z,752.00
2023-04-25T11:32:11.344Z,751.00
2023-04-25T11:33:11.288Z,752.00
2023-04-25T11:34:11.270Z,754.00
2023-04-25T11:35:11.275Z,754.00
2023-04-25T11:36:11.317Z,754.00
2023-04-25T11:37:11.340Z,755.00
2023-04-25T11:38:11.329Z,753.00
2023-04-25T11:39:11.326Z,754.00
2023-04-25T11:40:11.407Z,752.00
2023-04-25T11:41:11.413Z,754.00
2023-04-25T11:42:13.813Z,753.00
2023-04-25T11:43:11.418Z,751.00
2023-04-25T11:44:11.387Z,748.00
2023-04-25T11:45:11.397Z,751.00
2023-04-25T11:46:11.556Z,752.00
2023-04-25T11:47:11.412Z,752.00
2023-04-25T11:48:11.374Z,751.00
2023-04-25T11:49:11.356Z,746.00
2023-04-25T11:50:11.465Z,745.00
2023-04-25T11:51:11.358Z,743.00
2023-04-25T11:52:12.134Z,742.00
2023-04-25T11:53:11.356Z,744.00
2023-04-25T11:54:11.375Z,742.00
2023-04-25T11:55:11.655Z,741.00
2023-04-25T11:56:11.302Z,738.00
2023-04-25T11:57:11.315Z,735.00
2023-04-25T11:58:11.277Z,729.00
2023-04-25T11:59:11.947Z,726.00
2023-04-25T12:00:11.364Z,725.00
2023-04-25T12:01:11.269Z,727.00
2023-04-25T12:02:11.356Z,724.00
2023-04-25T12:03:11.347Z,724.00
2023-04-25T12:04:11.454Z,722.00
2023-04-25T12:05:27.164Z,719.00
2023-04-25T12:06:12.306Z,718.00
2023-04-25T12:07:11.251Z,717.00
2023-04-25T12:08:11.303Z,717.00
2023-04-25T12:09:11.253Z,719.00
2023-04-25T12:10:11.237Z,719.00
2023-04-25T12:11:11.204Z,720.00
2023-04-25T12:12:11.641Z,722.00
2023-04-25T12:13:11.189Z,722.00
2023-04-25T12:14:11.182Z,724.00
2023-04-25T12:15:11.635Z,723.00
2023-04-25T12:16:11.279Z,721.00
2023-04-25T12:17:11.174Z,719.00
2023-04-25T12:18:11.305Z,716.00
2023-04-25T12:19:11.189Z,714.00
2023-04-25T12:20:11.632Z,712.00
2023-04-25T12:21:11.162Z,710.00
2023-04-25T12:22:11.183Z,710.00
2023-04-25T12:23:11.133Z,708.00
2023-04-25T12:24:11.161Z,709.00